DTKA

Tabarka 7 Novembre Airport

Tabarka, Tunisia
METAR DTKA 170200Z AUTO 06006KT 330V100 /// 18/14 Q1012
Observed Flight Rules
Oct-17 @ 02:00 UTC (an hour ago)
Wind
60° at 6 knots
Temperatures Readings
Current 18°C / 64°F
Dewpoint 14°C / 57°F
Humidity 78%
Altimeter 29.88" Hg
Pressure 1012 hPa
Elevation 21
METAR DTKA 170200Z AUTO 06006KT 330V100 /// 18/14 Q1012
Observed Flight Rules
Oct-17 @ 02:00 UTC
(an hour ago)
Wind
60° at 6 knots
Temperature Dewpoint
18°C / 64°F 14°C / 57°F
Humidity Altimeter Pressure
78% 29.88" Hg 1012 hPa